Time;durP1;ratioP1;P1;durP2;ratioP2;P2;SDS_P1;SDS_P2;PMS_P1;PMS_P2;Temp;Humidity;BMP_temperature;BMP_pressure;BME280_temperature;BME280_humidity;BME280_pressure;Samples;Min_cycle;Max_cycle;Signal;HPM_P1;HPM_P2
2021/11/03 00:01:10;;;;;;;4.78;4.10;;;4.50;99.90;;;;;;4990672;28;20211;-72
2021/11/03 00:03:37;;;;;;;5.53;3.97;;;4.60;99.90;;;;;;4990782;28;20199;-72
2021/11/03 00:06:04;;;;;;;4.05;3.75;;;4.60;99.90;;;;;;4990224;28;20223;-72
2021/11/03 00:08:31;;;;;;;7.90;4.95;;;4.60;99.90;;;;;;4991346;28;20199;-73
2021/11/03 00:10:59;;;;;;;7.47;5.15;;;4.60;99.90;;;;;;4990745;28;20207;-72
2021/11/03 00:13:28;;;;;;;5.80;4.47;;;4.60;99.90;;;;;;4990866;28;20211;-73
2021/11/03 00:15:56;;;;;;;4.85;3.72;;;4.60;99.90;;;;;;4990072;28;20250;-73
2021/11/03 00:18:23;;;;;;;4.63;4.22;;;4.60;99.90;;;;;;4990753;28;20215;-73
2021/11/03 00:20:50;;;;;;;5.13;4.47;;;4.60;99.90;;;;;;4990977;28;20214;-72
2021/11/03 00:23:17;;;;;;;5.15;4.63;;;4.60;99.90;;;;;;4990400;28;20207;-72
2021/11/03 00:25:46;;;;;;;5.43;4.88;;;4.70;99.90;;;;;;4990388;28;20230;-71
2021/11/03 00:28:13;;;;;;;4.78;4.25;;;4.70;99.90;;;;;;4990255;28;20609;-72
2021/11/03 00:30:42;;;;;;;3.90;3.55;;;4.70;99.90;;;;;;4990708;28;20211;-71
2021/11/03 00:33:09;;;;;;;4.47;3.65;;;4.70;99.90;;;;;;4990573;28;20210;-72
2021/11/03 00:35:36;;;;;;;5.00;4.20;;;4.70;99.90;;;;;;4990652;28;20317;-72
2021/11/03 00:38:03;;;;;;;4.35;3.72;;;4.70;99.90;;;;;;4990036;28;20211;-72
2021/11/03 00:40:29;;;;;;;4.53;3.88;;;4.80;99.90;;;;;;4990526;28;20597;-71
2021/11/03 00:42:56;;;;;;;4.78;3.90;;;4.80;99.90;;;;;;4990790;28;20199;-73
2021/11/03 00:45:23;;;;;;;5.35;3.80;;;4.80;99.90;;;;;;4990417;28;20662;-73
2021/11/03 00:47:51;;;;;;;5.05;4.40;;;4.80;99.90;;;;;;4990086;28;20207;-71
2021/11/03 00:50:20;;;;;;;5.00;4.50;;;4.90;99.90;;;;;;4990331;28;20222;-72
2021/11/03 00:52:46;;;;;;;4.72;4.22;;;4.90;99.90;;;;;;4990116;28;20203;-72
2021/11/03 00:55:14;;;;;;;6.95;4.60;;;4.90;99.90;;;;;;4990177;28;20223;-72
2021/11/03 00:57:41;;;;;;;6.15;5.55;;;4.90;99.90;;;;;;4989847;28;20207;-72
2021/11/03 01:00:09;;;;;;;6.75;4.00;;;4.90;99.90;;;;;;4989945;28;20218;-72
2021/11/03 01:02:36;;;;;;;5.05;4.40;;;5.00;99.90;;;;;;4990469;28;20206;-72
2021/11/03 01:05:07;;;;;;;6.07;4.35;;;5.00;99.90;;;;;;4990526;28;20199;-72
2021/11/03 01:07:34;;;;;;;4.90;4.40;;;5.00;99.90;;;;;;4993959;28;20219;-72
2021/11/03 01:10:00;;;;;;;6.35;4.38;;;5.00;99.90;;;;;;4993922;28;20199;-72
2021/11/03 01:12:30;;;;;;;6.50;4.60;;;5.10;99.90;;;;;;4994505;28;20214;-75
2021/11/03 01:14:57;;;;;;;8.15;4.82;;;5.00;99.90;;;;;;4993930;28;20223;-72
2021/11/03 01:17:23;;;;;;;5.30;4.68;;;5.10;99.90;;;;;;4993496;28;20226;-73
2021/11/03 01:19:50;;;;;;;4.53;3.83;;;5.10;99.90;;;;;;4995249;28;20211;-71
2021/11/03 01:22:18;;;;;;;5.05;4.55;;;5.10;99.90;;;;;;5011552;28;20233;-73
2021/11/03 01:24:45;;;;;;;5.38;4.75;;;5.10;99.90;;;;;;5171202;22;20218;-94
2021/11/03 01:27:12;;;;;;;4.88;4.03;;;5.10;99.90;;;;;;5066163;28;20192;-93
2021/11/03 01:29:39;;;;;;;7.20;4.72;;;5.10;99.90;;;;;;5066648;28;20291;-92
2021/11/03 01:32:07;;;;;;;7.55;5.32;;;5.10;99.90;;;;;;5065133;28;20224;-93
2021/11/03 01:34:34;;;;;;;8.07;5.40;;;5.00;99.90;;;;;;5066573;28;20221;-92
2021/11/03 01:37:00;;;;;;;7.85;5.80;;;5.00;99.90;;;;;;5066631;28;20714;-93
2021/11/03 01:39:29;;;;;;;7.00;5.65;;;4.90;99.90;;;;;;5067143;28;20205;-93
2021/11/03 01:41:55;;;;;;;7.07;6.38;;;4.90;99.90;;;;;;5066460;28;20270;-93
2021/11/03 01:44:22;;;;;;;8.27;5.88;;;4.80;99.90;;;;;;5051716;28;20233;-92
2021/11/03 01:47:11;;;;;;;8.23;6.00;;;4.80;99.90;;;;;;5043859;28;20205;-93
2021/11/03 01:49:38;;;;;;;6.55;5.15;;;4.80;99.90;;;;;;5042099;28;20208;-93
2021/11/03 01:52:08;;;;;;;6.13;5.53;;;4.90;99.90;;;;;;5041000;28;20216;-92
2021/11/03 01:54:41;;;;;;;5.53;5.00;;;4.90;99.90;;;;;;5040330;28;20253;-93
2021/11/03 01:57:11;;;;;;;5.72;5.22;;;5.00;99.90;;;;;;5042596;28;20681;-93
2021/11/03 01:59:42;;;;;;;6.75;5.60;;;5.10;99.90;;;;;;5043678;28;20213;-94
2021/11/03 02:02:09;;;;;;;6.38;5.78;;;5.20;99.90;;;;;;5043214;28;20675;-93
2021/11/03 02:04:36;;;;;;;5.75;5.13;;;5.20;99.90;;;;;;5043108;28;20222;-94
2021/11/03 02:07:08;;;;;;;5.88;5.22;;;5.20;99.90;;;;;;5044172;28;20212;-94
2021/11/03 02:09:36;;;;;;;6.65;5.93;;;5.30;99.90;;;;;;5044812;28;20212;-93
2021/11/03 02:12:03;;;;;;;6.10;5.50;;;5.30;99.90;;;;;;5045338;28;20217;-93
2021/11/03 02:14:30;;;;;;;5.95;5.45;;;5.30;99.90;;;;;;5043635;28;20234;-92
2021/11/03 02:16:57;;;;;;;6.43;5.47;;;5.40;99.90;;;;;;5041213;28;20233;-92
2021/11/03 02:19:29;;;;;;;6.40;5.70;;;5.40;99.90;;;;;;5042793;28;20936;-92
2021/11/03 02:22:14;;;;;;;8.35;5.90;;;5.40;99.90;;;;;;5044017;28;20639;-92
2021/11/03 02:24:50;;;;;;;5.80;5.20;;;5.40;99.90;;;;;;5053750;28;20229;-92
2021/11/03 02:27:19;;;;;;;5.65;5.07;;;5.40;99.90;;;;;;5053834;28;20591;-92
2021/11/03 02:29:46;;;;;;;6.65;5.85;;;5.40;99.90;;;;;;5043767;28;20205;-92
2021/11/03 02:32:17;;;;;;;7.45;5.40;;;5.40;99.90;;;;;;5044014;28;20212;-93
2021/11/03 02:34:45;;;;;;;6.13;5.55;;;5.40;99.90;;;;;;5045128;28;20237;-93
2021/11/03 02:37:40;;;;;;;6.10;5.50;;;5.40;99.90;;;;;;5046048;28;20197;-93
2021/11/03 02:40:19;;;;;;;5.68;5.18;;;5.50;99.90;;;;;;5045678;28;20208;-92
2021/11/03 02:42:50;;;;;;;8.23;5.15;;;5.40;99.90;;;;;;5044552;28;20212;-93
2021/11/03 02:45:21;;;;;;;5.22;4.72;;;5.40;99.90;;;;;;5044878;28;20678;-92
2021/11/03 02:47:48;;;;;;;7.03;5.28;;;5.40;99.90;;;;;;5048742;28;20202;-93
2021/11/03 02:50:15;;;;;;;5.90;4.75;;;5.50;99.90;;;;;;5048180;28;20292;-93
2021/11/03 02:52:42;;;;;;;6.07;4.65;;;5.50;99.90;;;;;;5049683;28;20201;-93
2021/11/03 02:55:12;;;;;;;5.75;5.05;;;5.50;99.90;;;;;;5049433;28;20217;-93
2021/11/03 02:57:38;;;;;;;4.70;4.30;;;5.50;99.90;;;;;;5047432;28;20233;-92
2021/11/03 03:00:11;;;;;;;5.18;4.68;;;5.50;99.90;;;;;;5047557;28;20206;-93
2021/11/03 03:02:39;;;;;;;4.93;4.30;;;5.50;99.90;;;;;;5047445;28;20206;-93
2021/11/03 03:05:06;;;;;;;5.35;4.85;;;5.50;99.90;;;;;;5047904;28;20213;-93
2021/11/03 03:07:33;;;;;;;11.93;4.85;;;5.60;99.90;;;;;;5048778;28;20206;-94
2021/11/03 03:10:01;;;;;;;4.95;4.00;;;5.60;99.90;;;;;;5049992;28;20202;-93
2021/11/03 03:12:31;;;;;;;5.00;4.50;;;5.60;99.90;;;;;;5049896;28;20213;-93
2021/11/03 03:14:59;;;;;;;5.50;4.82;;;5.50;99.90;;;;;;5050238;28;20309;-93
2021/11/03 03:17:27;;;;;;;5.15;4.60;;;5.60;99.90;;;;;;5048924;28;20217;-93
2021/11/03 03:19:54;;;;;;;5.93;4.18;;;5.50;99.90;;;;;;5049419;28;20197;-93
2021/11/03 03:22:22;;;;;;;4.55;4.15;;;5.50;99.90;;;;;;5049711;28;20210;-93
2021/11/03 03:24:49;;;;;;;7.28;4.65;;;5.50;99.90;;;;;;5048983;28;20237;-93
2021/11/03 03:27:16;;;;;;;4.63;4.18;;;5.50;99.90;;;;;;5049805;28;20198;-93
2021/11/03 03:29:43;;;;;;;4.85;4.30;;;5.50;99.90;;;;;;5044344;28;20354;-93
2021/11/03 03:32:11;;;;;;;5.03;4.63;;;5.50;99.90;;;;;;5046731;28;20201;-92
2021/11/03 03:34:39;;;;;;;4.65;4.22;;;5.60;99.90;;;;;;5045694;28;20230;-93
2021/11/03 03:37:06;;;;;;;5.75;4.70;;;5.60;99.90;;;;;;5045756;28;20206;-93
2021/11/03 03:39:34;;;;;;;5.18;4.68;;;5.60;99.90;;;;;;5046016;28;20208;-92
2021/11/03 03:42:05;;;;;;;5.32;4.35;;;5.60;99.90;;;;;;5045974;28;20213;-92
2021/11/03 03:44:32;;;;;;;4.50;4.10;;;5.60;99.90;;;;;;5046038;28;20244;-93
2021/11/03 03:46:58;;;;;;;5.22;4.00;;;5.50;99.90;;;;;;5044627;28;20217;-93
2021/11/03 03:49:25;;;;;;;6.47;4.30;;;5.50;99.90;;;;;;5043750;28;20209;-93
2021/11/03 03:51:54;;;;;;;4.93;4.43;;;5.60;99.90;;;;;;5046052;28;20228;-93
2021/11/03 03:54:21;;;;;;;5.88;4.03;;;5.60;99.90;;;;;;5057990;28;20206;-94
2021/11/03 03:56:47;;;;;;;6.32;4.07;;;5.50;99.90;;;;;;5058008;28;20220;-94
2021/11/03 03:59:15;;;;;;;4.47;4.07;;;5.60;99.90;;;;;;5058253;28;20182;-93
2021/11/03 04:01:42;;;;;;;4.40;4.00;;;5.60;99.90;;;;;;5052639;28;20237;-93
2021/11/03 04:04:10;;;;;;;4.13;3.67;;;5.60;99.90;;;;;;5045663;28;20694;-93
2021/11/03 04:06:37;;;;;;;4.90;4.38;;;5.60;99.90;;;;;;5045111;28;20213;-92
2021/11/03 04:09:07;;;;;;;4.93;3.90;;;5.50;99.90;;;;;;5041592;28;20202;-93
2021/11/03 04:11:34;;;;;;;4.32;3.92;;;5.60;99.90;;;;;;5045598;28;20643;-92
2021/11/03 04:14:01;;;;;;;4.47;4.07;;;5.60;99.90;;;;;;5048432;28;20233;-92
2021/11/03 04:16:28;;;;;;;5.07;4.25;;;5.50;99.90;;;;;;5047076;28;20612;-92
2021/11/03 04:18:55;;;;;;;4.15;3.80;;;5.50;99.90;;;;;;5047223;28;20212;-92
2021/11/03 04:21:22;;;;;;;5.10;4.60;;;5.50;99.90;;;;;;5049438;28;20225;-93
2021/11/03 04:23:48;;;;;;;4.18;3.28;;;5.50;99.90;;;;;;5049362;28;20430;-92
2021/11/03 04:26:24;;;;;;;3.10;2.72;;;5.60;99.90;;;;;;5043289;28;20194;-92
2021/11/03 04:28:51;;;;;;;3.90;3.53;;;5.50;99.90;;;;;;5037995;28;20200;-91
2021/11/03 04:31:19;;;;;;;3.03;2.83;;;5.50;99.90;;;;;;5034448;28;20212;-92
2021/11/03 04:33:46;;;;;;;2.97;2.78;;;5.50;99.90;;;;;;5038196;28;20206;-92
2021/11/03 04:36:13;;;;;;;3.22;2.88;;;5.50;99.90;;;;;;5050922;28;20225;-91
2021/11/03 04:38:40;;;;;;;3.45;3.15;;;5.50;99.90;;;;;;5056340;28;20592;-91
2021/11/03 04:41:07;;;;;;;4.03;2.75;;;5.50;99.90;;;;;;5053127;28;20204;-92
2021/11/03 04:43:35;;;;;;;3.45;3.15;;;5.60;99.90;;;;;;5049780;28;20205;-91
2021/11/03 04:46:02;;;;;;;3.13;2.85;;;5.60;99.90;;;;;;5044441;28;20204;-90
2021/11/03 04:48:29;;;;;;;3.95;3.25;;;5.60;99.90;;;;;;5049379;28;20203;-94
2021/11/03 04:50:57;;;;;;;6.72;2.85;;;5.60;99.90;;;;;;5059623;28;20193;-94
2021/11/03 04:53:24;;;;;;;3.35;2.90;;;5.70;99.90;;;;;;5062923;28;20220;-94
2021/11/03 04:55:54;;;;;;;3.30;2.95;;;5.70;99.90;;;;;;5057172;22;20287;-67
2021/11/03 04:58:21;;;;;;;3.03;2.72;;;5.80;99.90;;;;;;5019510;28;20213;-69
2021/11/03 05:00:51;;;;;;;4.00;3.60;;;5.80;99.90;;;;;;5025760;28;20216;-68
2021/11/03 05:03:18;;;;;;;4.32;3.10;;;5.80;99.90;;;;;;5028782;28;20198;-68
2021/11/03 05:05:46;;;;;;;7.25;3.92;;;5.80;99.90;;;;;;5029951;28;20218;-68
2021/11/03 05:08:13;;;;;;;3.88;3.55;;;5.80;99.90;;;;;;5029763;28;20637;-68
2021/11/03 05:10:40;;;;;;;5.32;4.78;;;5.80;99.90;;;;;;5027348;28;20600;-68
2021/11/03 05:13:08;;;;;;;4.25;3.50;;;5.80;99.90;;;;;;5029721;28;20213;-68
2021/11/03 05:15:35;;;;;;;4.43;4.03;;;5.80;99.90;;;;;;5029685;28;20226;-69
2021/11/03 05:18:03;;;;;;;4.13;3.72;;;5.80;99.90;;;;;;5029636;28;20205;-67
2021/11/03 05:20:30;;;;;;;5.05;3.90;;;5.80;99.90;;;;;;5029666;28;20205;-69
2021/11/03 05:22:57;;;;;;;6.70;4.85;;;5.70;99.90;;;;;;5030056;28;20457;-67
2021/11/03 05:25:29;;;;;;;4.82;4.32;;;5.70;99.90;;;;;;5030354;28;20202;-68
2021/11/03 05:27:57;;;;;;;5.22;4.68;;;5.70;99.90;;;;;;5030179;28;20201;-68
2021/11/03 05:30:26;;;;;;;5.10;4.10;;;5.80;99.90;;;;;;5030150;28;20206;-68
2021/11/03 05:32:53;;;;;;;4.97;4.47;;;5.70;99.90;;;;;;5029954;28;20213;-68
2021/11/03 05:35:22;;;;;;;4.78;3.70;;;5.70;99.90;;;;;;5029695;28;20226;-68
2021/11/03 05:37:49;;;;;;;3.70;3.38;;;5.80;99.90;;;;;;5029211;28;20669;-68
2021/11/03 05:40:20;;;;;;;3.78;3.38;;;5.80;99.90;;;;;;5028798;28;20201;-68
2021/11/03 05:42:47;;;;;;;3.80;3.42;;;5.80;99.90;;;;;;5029868;28;20248;-68
2021/11/03 05:45:13;;;;;;;4.25;3.25;;;5.80;99.90;;;;;;5029276;28;20194;-68
2021/11/03 05:47:41;;;;;;;5.25;3.40;;;5.80;99.90;;;;;;5029494;28;20723;-68
2021/11/03 05:50:10;;;;;;;3.50;3.20;;;5.80;99.90;;;;;;5029462;28;20598;-67
2021/11/03 05:52:38;;;;;;;2.88;2.67;;;5.80;99.90;;;;;;5031261;28;20209;-67
2021/11/03 05:55:06;;;;;;;4.45;3.47;;;5.80;99.90;;;;;;5032943;28;20205;-67
2021/11/03 05:57:36;;;;;;;3.00;2.70;;;5.80;99.90;;;;;;5033113;28;20272;-68
2021/11/03 06:00:06;;;;;;;3.25;2.95;;;5.80;99.90;;;;;;5035495;28;20205;-68
2021/11/03 06:02:33;;;;;;;5.72;3.15;;;5.80;99.90;;;;;;5034257;28;20202;-68
2021/11/03 06:05:00;;;;;;;2.88;2.58;;;5.80;99.90;;;;;;5034243;28;20198;-68
2021/11/03 06:07:26;;;;;;;3.10;2.80;;;5.80;99.90;;;;;;5031362;28;20367;-67
2021/11/03 06:10:00;;;;;;;3.55;3.25;;;5.80;99.90;;;;;;5034152;28;20206;-68
2021/11/03 06:12:26;;;;;;;2.95;2.53;;;5.80;99.90;;;;;;5015910;28;20240;-68
2021/11/03 06:14:53;;;;;;;3.17;2.90;;;5.80;99.90;;;;;;5033724;28;20206;-68
2021/11/03 06:17:20;;;;;;;3.40;3.10;;;5.80;99.90;;;;;;5032464;28;20226;-68
2021/11/03 06:19:47;;;;;;;5.13;3.00;;;5.80;99.90;;;;;;5033399;28;20202;-67
2021/11/03 06:22:14;;;;;;;3.83;2.65;;;5.90;99.90;;;;;;5033071;28;20213;-67
2021/11/03 06:24:44;;;;;;;2.80;2.50;;;5.90;99.90;;;;;;5033248;28;20231;-68
2021/11/03 06:27:12;;;;;;;3.15;2.78;;;5.90;99.90;;;;;;5032319;28;20231;-68
2021/11/03 06:29:38;;;;;;;3.20;2.67;;;5.90;99.90;;;;;;5033046;28;20205;-68
2021/11/03 06:32:06;;;;;;;3.03;2.70;;;5.90;99.90;;;;;;5032898;28;20212;-68
2021/11/03 06:34:32;;;;;;;6.45;3.30;;;5.90;99.90;;;;;;5033251;28;20206;-69
2021/11/03 06:37:00;;;;;;;3.53;3.20;;;6.00;99.90;;;;;;5032050;28;20233;-69
2021/11/03 06:39:27;;;;;;;3.25;2.90;;;5.90;99.90;;;;;;5032904;28;20213;-68
2021/11/03 06:41:54;;;;;;;4.05;3.65;;;5.90;99.90;;;;;;5032631;28;20289;-68
2021/11/03 06:44:22;;;;;;;6.80;3.40;;;5.90;99.90;;;;;;5031045;28;20202;-67
2021/11/03 06:46:49;;;;;;;7.25;4.03;;;6.00;99.90;;;;;;5028703;28;20224;-68
2021/11/03 06:49:15;;;;;;;9.98;4.43;;;6.00;99.90;;;;;;5031238;28;20209;-67
2021/11/03 06:51:42;;;;;;;4.32;3.92;;;6.00;99.90;;;;;;5033037;28;20206;-68
2021/11/03 06:54:09;;;;;;;4.78;3.92;;;6.00;99.90;;;;;;5032168;28;20212;-68
2021/11/03 06:56:37;;;;;;;6.22;3.95;;;6.10;99.90;;;;;;5032548;28;20222;-68
2021/11/03 06:59:04;;;;;;;4.15;3.85;;;6.10;99.90;;;;;;5032657;28;20221;-67
2021/11/03 07:01:33;;;;;;;6.72;3.85;;;6.10;99.90;;;;;;5030990;28;20198;-68
2021/11/03 07:04:01;;;;;;;5.22;4.10;;;6.10;99.90;;;;;;5032106;28;20206;-67
2021/11/03 07:06:28;;;;;;;5.78;3.60;;;6.20;99.90;;;;;;5031462;28;20214;-68
2021/11/03 07:08:57;;;;;;;5.68;4.28;;;6.10;99.90;;;;;;5032588;28;20201;-68
2021/11/03 07:11:24;;;;;;;5.25;4.20;;;6.20;99.90;;;;;;5031935;28;20746;-68
2021/11/03 07:13:51;;;;;;;4.20;3.90;;;6.20;99.90;;;;;;5032677;28;20213;-67
2021/11/03 07:16:18;;;;;;;5.18;4.05;;;6.20;99.90;;;;;;5030917;28;20822;-67
2021/11/03 07:18:46;;;;;;;4.90;4.38;;;6.10;99.90;;;;;;5032594;28;20211;-67
2021/11/03 07:21:13;;;;;;;5.90;4.55;;;6.10;99.90;;;;;;5031573;28;20198;-68
2021/11/03 07:26:07;;;;;;;6.22;4.90;;;6.20;99.90;;;;;;5029545;28;20234;-73
2021/11/03 07:28:36;;;;;;;5.35;4.03;;;6.20;99.90;;;;;;5031017;28;20217;-72
2021/11/03 07:31:03;;;;;;;7.28;3.80;;;6.30;99.90;;;;;;5031380;28;20288;-72
2021/11/03 07:33:29;;;;;;;5.72;4.15;;;6.30;99.90;;;;;;5031043;28;20202;-72
2021/11/03 07:35:58;;;;;;;5.18;4.68;;;6.30;99.90;;;;;;5030473;28;20226;-72
2021/11/03 07:38:25;;;;;;;5.75;4.65;;;6.30;99.90;;;;;;5031408;28;20202;-72
2021/11/03 07:40:55;;;;;;;5.57;4.50;;;6.40;99.90;;;;;;5030953;28;20209;-72
2021/11/03 07:43:23;;;;;;;4.85;4.30;;;6.40;99.90;;;;;;5031298;28;20233;-72
2021/11/03 07:45:51;;;;;;;5.85;5.25;;;6.50;99.90;;;;;;5029959;28;20225;-72
2021/11/03 07:48:19;;;;;;;7.40;4.38;;;6.50;99.90;;;;;;5031096;28;20212;-72
2021/11/03 07:50:50;;;;;;;6.93;4.03;;;6.40;99.90;;;;;;5030464;28;20206;-72
2021/11/03 07:53:19;;;;;;;4.40;3.70;;;6.40;99.90;;;;;;5031166;28;20581;-72
2021/11/03 07:55:50;;;;;;;4.78;4.20;;;6.50;99.90;;;;;;5030143;28;20225;-72
2021/11/03 07:58:20;;;;;;;3.83;3.50;;;6.60;99.90;;;;;;5031100;28;20201;-72
2021/11/03 08:00:47;;;;;;;4.63;3.80;;;6.60;99.90;;;;;;5030643;28;20209;-72
2021/11/03 08:03:14;;;;;;;5.50;3.80;;;6.70;99.90;;;;;;5030752;28;20204;-72
2021/11/03 08:05:41;;;;;;;5.43;4.32;;;6.70;99.90;;;;;;5030426;28;20222;-72
2021/11/03 08:08:11;;;;;;;4.70;3.78;;;6.80;99.90;;;;;;5030093;28;20202;-72
2021/11/03 08:10:42;;;;;;;5.57;5.07;;;6.80;99.90;;;;;;5030538;28;20681;-71
2021/11/03 08:13:13;;;;;;;7.47;3.40;;;6.70;99.90;;;;;;5031084;28;20201;-72
2021/11/03 08:15:41;;;;;;;3.83;3.40;;;6.80;99.90;;;;;;5029373;28;20233;-73
2021/11/03 08:18:08;;;;;;;3.70;3.33;;;6.80;99.90;;;;;;5031225;28;20218;-72
2021/11/03 08:20:37;;;;;;;3.88;3.47;;;6.90;99.90;;;;;;5030096;28;20691;-72
2021/11/03 08:23:04;;;;;;;4.85;3.55;;;6.90;99.90;;;;;;5030510;28;20741;-72
2021/11/03 08:25:31;;;;;;;6.50;3.35;;;6.90;99.90;;;;;;5030508;28;20241;-72
2021/11/03 08:27:59;;;;;;;3.65;3.35;;;7.00;99.90;;;;;;5030251;28;20688;-72
2021/11/03 08:30:26;;;;;;;4.45;4.05;;;7.00;99.90;;;;;;5030541;28;20578;-72
2021/11/03 08:32:56;;;;;;;4.25;3.85;;;7.00;99.90;;;;;;5030156;28;20221;-73
2021/11/03 08:35:25;;;;;;;4.65;3.47;;;7.00;99.90;;;;;;5030323;28;20727;-73
2021/11/03 08:37:54;;;;;;;4.97;2.83;;;7.00;99.90;;;;;;5029506;28;20229;-72
2021/11/03 08:40:23;;;;;;;4.10;3.20;;;7.00;99.90;;;;;;5031282;28;20202;-71
2021/11/03 08:42:51;;;;;;;3.63;3.22;;;7.10;99.90;;;;;;5030158;28;20665;-72
2021/11/03 08:45:19;;;;;;;7.35;3.25;;;7.10;99.90;;;;;;5030149;28;20201;-72
2021/11/03 08:47:46;;;;;;;5.03;4.30;;;7.10;99.90;;;;;;5029713;28;20273;-72
2021/11/03 08:50:16;;;;;;;3.40;3.10;;;7.20;99.90;;;;;;5030083;28;20209;-72
2021/11/03 08:52:43;;;;;;;3.58;3.28;;;7.30;99.90;;;;;;5030271;28;20579;-72
2021/11/03 08:55:11;;;;;;;4.50;2.80;;;7.30;99.90;;;;;;5029860;28;20209;-72
2021/11/03 08:57:39;;;;;;;3.65;3.33;;;7.30;99.90;;;;;;5029465;28;20312;-72
2021/11/03 09:00:09;;;;;;;3.42;3.13;;;7.40;99.90;;;;;;5029816;28;20197;-72
2021/11/03 09:02:37;;;;;;;4.60;4.05;;;7.40;99.90;;;;;;5023342;28;20293;-72
2021/11/03 09:05:04;;;;;;;4.00;3.60;;;7.40;99.90;;;;;;5027188;28;20194;-72
2021/11/03 09:07:32;;;;;;;5.53;3.88;;;7.40;99.90;;;;;;5024810;28;20311;-72
2021/11/03 09:09:59;;;;;;;3.58;3.22;;;7.50;99.90;;;;;;5029332;28;20560;-72
2021/11/03 09:12:26;;;;;;;4.25;3.85;;;7.50;99.90;;;;;;5029332;28;20596;-72
2021/11/03 09:14:53;;;;;;;3.60;3.30;;;7.60;99.90;;;;;;5012427;28;20205;-72
2021/11/03 09:17:21;;;;;;;5.88;4.07;;;7.70;99.90;;;;;;5023096;28;20226;-72
2021/11/03 09:19:49;;;;;;;3.95;3.60;;;7.90;99.90;;;;;;5028472;28;20209;-72
2021/11/03 09:22:19;;;;;;;5.13;3.53;;;8.10;99.90;;;;;;5028776;28;20696;-73
2021/11/03 09:24:48;;;;;;;4.75;3.60;;;8.20;99.90;;;;;;5028884;28;20217;-75
2021/11/03 09:27:18;;;;;;;3.45;3.20;;;8.20;99.90;;;;;;5031096;28;20222;-72
2021/11/03 09:29:50;;;;;;;3.55;3.25;;;8.30;99.90;;;;;;5033292;28;20256;-74
2021/11/03 09:32:23;;;;;;;3.35;3.05;;;8.30;99.90;;;;;;5032674;28;20208;-75
2021/11/03 09:34:53;;;;;;;4.65;2.70;;;8.30;99.90;;;;;;5033337;28;20255;-74
2021/11/03 09:37:26;;;;;;;2.63;2.40;;;8.30;99.90;;;;;;5031594;28;20589;-74
2021/11/03 09:39:55;;;;;;;2.53;2.17;;;8.20;99.90;;;;;;5033190;28;20592;-74
2021/11/03 09:42:24;;;;;;;2.30;2.10;;;8.20;99.90;;;;;;5033244;28;20614;-74
2021/11/03 09:44:55;;;;;;;2.55;2.15;;;8.20;99.90;;;;;;5033044;28;20202;-74
2021/11/03 09:47:25;;;;;;;2.80;2.60;;;8.30;99.90;;;;;;5032465;28;20312;-75
2021/11/03 09:50:00;;;;;;;3.13;2.50;;;8.30;99.90;;;;;;5032868;28;20259;-74
2021/11/03 09:52:30;;;;;;;2.55;2.35;;;8.40;99.90;;;;;;5032888;28;20208;-74
2021/11/03 09:55:00;;;;;;;3.05;2.60;;;8.40;99.90;;;;;;5032915;28;20202;-72
2021/11/03 09:57:33;;;;;;;2.88;2.38;;;8.50;99.90;;;;;;5031659;28;20226;-72
2021/11/03 10:00:08;;;;;;;4.28;3.22;;;8.50;99.90;;;;;;5032866;28;20206;-72
2021/11/03 10:02:45;;;;;;;2.58;2.38;;;8.50;99.90;;;;;;5032197;28;20557;-71
2021/11/03 10:05:25;;;;;;;3.20;2.60;;;8.50;99.90;;;;;;5032813;28;20205;-72
2021/11/03 10:07:56;;;;;;;2.90;2.20;;;8.50;99.90;;;;;;5032091;28;20198;-71
2021/11/03 10:10:31;;;;;;;5.32;2.90;;;8.50;99.90;;;;;;5032688;28;20209;-72
2021/11/03 10:12:59;;;;;;;3.30;3.00;;;8.50;99.90;;;;;;5032836;28;20202;-71
2021/11/03 10:15:28;;;;;;;2.97;2.67;;;8.50;99.90;;;;;;5031160;28;20297;-72
2021/11/03 10:18:10;;;;;;;3.40;2.80;;;8.50;99.90;;;;;;5032223;28;20217;-72
2021/11/03 10:20:44;;;;;;;3.40;2.88;;;8.50;99.90;;;;;;5011728;28;20777;-72
2021/11/03 10:23:20;;;;;;;3.80;3.20;;;8.50;99.90;;;;;;5012524;28;20202;-72
2021/11/03 10:25:49;;;;;;;3.10;2.80;;;8.50;99.90;;;;;;5011130;28;20240;-72
2021/11/03 10:28:42;;;;;;;3.40;3.10;;;8.50;99.90;;;;;;5028806;28;20293;-72
2021/11/03 10:31:23;;;;;;;3.53;3.13;;;8.50;99.90;;;;;;5022329;28;20202;-71
2021/11/03 10:33:59;;;;;;;2.90;2.70;;;8.60;99.90;;;;;;5031025;28;20717;-72
2021/11/03 10:36:39;;;;;;;5.70;3.50;;;8.70;99.90;;;;;;5031328;28;20253;-72
2021/11/03 10:39:16;;;;;;;3.25;2.92;;;8.70;99.90;;;;;;5031451;28;20197;-71
2021/11/03 10:41:43;;;;;;;3.78;3.00;;;8.70;99.90;;;;;;5031862;28;20216;-72
2021/11/03 10:44:20;;;;;;;3.97;3.33;;;8.70;99.90;;;;;;5031358;28;20209;-72
2021/11/03 10:46:53;;;;;;;3.67;3.38;;;8.70;99.90;;;;;;5031058;28;20219;-72
2021/11/03 10:49:31;;;;;;;3.88;3.22;;;8.80;99.90;;;;;;5031541;28;20201;-72
2021/11/03 10:52:01;;;;;;;3.70;3.40;;;8.80;99.90;;;;;;5031291;28;20264;-72
2021/11/03 10:54:39;;;;;;;2.88;2.67;;;8.80;99.90;;;;;;5031157;28;20301;-72
2021/11/03 10:57:21;;;;;;;4.05;2.97;;;8.90;99.90;;;;;;5030566;28;20217;-72
2021/11/03 10:59:54;;;;;;;3.70;3.10;;;8.90;99.90;;;;;;5031653;28;20201;-72
2021/11/03 11:02:25;;;;;;;3.15;2.85;;;8.90;99.90;;;;;;5030568;28;20230;-72
2021/11/03 11:04:53;;;;;;;3.13;2.90;;;8.90;99.90;;;;;;5030833;28;20209;-71
2021/11/03 11:07:28;;;;;;;3.05;2.65;;;8.90;99.90;;;;;;5030572;28;20222;-72
2021/11/03 11:10:00;;;;;;;4.78;2.83;;;8.90;99.90;;;;;;5030984;28;20227;-72
2021/11/03 11:12:30;;;;;;;2.53;2.33;;;8.90;99.90;;;;;;5031097;28;20294;-72
2021/11/03 11:14:59;;;;;;;3.00;2.50;;;8.90;99.90;;;;;;5030450;28;20206;-72
2021/11/03 11:17:33;;;;;;;12.52;2.70;;;8.90;99.90;;;;;;5030360;28;20367;-72
2021/11/03 11:20:11;;;;;;;6.32;2.97;;;8.90;99.90;;;;;;5031270;28;20202;-72
2021/11/03 11:22:50;;;;;;;2.63;2.38;;;8.90;99.90;;;;;;5030226;28;20201;-72
2021/11/03 11:25:19;;;;;;;4.47;2.00;;;9.00;99.90;;;;;;5030381;28;20260;-72
2021/11/03 11:28:03;;;;;;;2.13;1.90;;;9.00;99.90;;;;;;5030687;28;20201;-74
2021/11/03 11:30:39;;;;;;;1.90;1.50;;;8.90;99.90;;;;;;5030730;28;20197;-72
2021/11/03 11:33:21;;;;;;;3.10;2.15;;;9.00;99.90;;;;;;5030821;28;20249;-72
2021/11/03 11:35:57;;;;;;;2.50;1.90;;;9.00;99.90;;;;;;5030240;28;20583;-72
2021/11/03 11:38:38;;;;;;;2.60;2.35;;;9.00;99.90;;;;;;5030460;28;20221;-72
2021/11/03 11:41:11;;;;;;;1.83;1.50;;;9.00;99.90;;;;;;5030630;28;20206;-72
2021/11/03 11:43:42;;;;;;;5.50;1.98;;;9.00;99.90;;;;;;5029346;28;20201;-72
2021/11/03 11:46:14;;;;;;;2.45;1.77;;;9.00;99.90;;;;;;5026933;28;20693;-72
2021/11/03 11:48:43;;;;;;;2.30;1.40;;;9.10;99.90;;;;;;5027878;28;20230;-72
2021/11/03 11:51:14;;;;;;;10.30;2.13;;;9.10;99.90;;;;;;5029436;28;20217;-72
2021/11/03 11:54:18;;;;;;;3.08;1.48;;;9.10;99.90;;;;;;5029638;28;20206;-72
2021/11/03 11:57:14;;;;;;;3.35;1.65;;;9.10;99.90;;;;;;5029117;28;20229;-72
2021/11/03 12:00:12;;;;;;;8.05;1.90;;;9.10;99.90;;;;;;5027238;28;20201;-72
2021/11/03 12:02:54;;;;;;;4.03;1.63;;;9.10;99.90;;;;;;5030643;28;20205;-74
2021/11/03 12:05:27;;;;;;;1.83;1.60;;;9.10;99.90;;;;;;5029915;28;20279;-72
2021/11/03 12:08:19;;;;;;;3.05;2.22;;;9.10;99.90;;;;;;5030095;28;20194;-73
2021/11/03 12:11:19;;;;;;;4.10;1.85;;;9.10;99.90;;;;;;5030764;28;20202;-72
2021/11/03 12:14:24;;;;;;;2.65;2.08;;;9.20;99.90;;;;;;5030414;28;20289;-72
2021/11/03 12:17:30;;;;;;;6.15;2.00;;;9.20;99.90;;;;;;5029703;28;20316;-75
2021/11/03 12:20:01;;;;;;;2.30;1.75;;;9.20;99.90;;;;;;5030329;28;20226;-72
2021/11/03 12:22:52;;;;;;;2.75;1.55;;;9.20;99.90;;;;;;5029850;28;20574;-72
2021/11/03 12:25:40;;;;;;;2.40;1.95;;;9.20;99.90;;;;;;5028299;28;20205;-72
2021/11/03 12:28:48;;;;;;;2.80;1.70;;;9.20;99.90;;;;;;5029919;28;20747;-72
2021/11/03 12:31:24;;;;;;;1.90;1.70;;;9.20;99.90;;;;;;5030280;28;20205;-72
2021/11/03 12:34:20;;;;;;;5.03;1.88;;;9.20;99.90;;;;;;5030164;28;20852;-74
2021/11/03 12:37:27;;;;;;;2.63;1.60;;;9.20;99.90;;;;;;5014407;28;20727;-72
2021/11/03 12:40:04;;;;;;;1.85;1.58;;;9.20;99.90;;;;;;5018794;28;20201;-73
2021/11/03 12:42:33;;;;;;;4.35;1.67;;;9.20;99.90;;;;;;5029791;28;20205;-73
2021/11/03 12:45:16;;;;;;;1.77;1.40;;;9.20;99.90;;;;;;5029727;28;20243;-72
2021/11/03 12:47:51;;;;;;;2.10;1.67;;;9.20;99.90;;;;;;5029397;28;20642;-73
2021/11/03 12:50:23;;;;;;;3.85;1.98;;;9.20;99.90;;;;;;5029844;28;20201;-73
2021/11/03 12:52:53;;;;;;;3.05;1.88;;;9.30;99.90;;;;;;5029639;28;20201;-73
2021/11/03 12:55:23;;;;;;;2.05;1.77;;;9.30;99.90;;;;;;5029469;28;20886;-73
2021/11/03 12:57:52;;;;;;;1.90;1.58;;;9.30;99.90;;;;;;5029255;28;20226;-72
2021/11/03 13:00:24;;;;;;;2.00;1.55;;;9.40;99.90;;;;;;5029085;28;20620;-73
2021/11/03 13:02:58;;;;;;;1.77;1.52;;;9.40;99.90;;;;;;5029078;28;20293;-74
2021/11/03 13:05:29;;;;;;;1.75;1.65;;;9.40;99.90;;;;;;5028829;28;20236;-73
2021/11/03 13:07:57;;;;;;;2.28;1.80;;;9.30;99.90;;;;;;5029572;28;20201;-72
2021/11/03 13:10:29;;;;;;;3.10;2.33;;;9.30;99.90;;;;;;5029796;28;20228;-72
2021/11/03 13:13:00;;;;;;;3.28;2.28;;;9.30;99.90;;;;;;5029402;28;20308;-73
2021/11/03 13:15:32;;;;;;;4.63;2.20;;;9.30;99.90;;;;;;5029950;28;20212;-73
2021/11/03 13:18:13;;;;;;;1.85;1.65;;;9.20;99.90;;;;;;5028677;28;20229;-72